Terminal Aerodrome Forecast
Issued by NWS Sterling, VA

Current Version | Previous Version | Graphics & Text | Print | Product List | Glossary On
Versions: 1 2 3 4 5 6 7 8 9 10 11 12 13 14 15 16 17 18 19 20 21 22 23 24 25 26 27 28
000
FTUS41 KLWX 291556 AAB
TAFDCA
TAF AMD
KDCA 291556Z 2916/3012 16008KT P6SM SCT050 BKN250
      TEMPO 2916/2918 6SM -SHRA BR BKN050
     FM292300 18005KT P6SM SCT100
     FM300200 18005KT P6SM BKN090
     FM300500 19005KT P6SM SCT250=

USA.gov is the U.S. government's official web portal to all federal, state and local government web resources and services.